createdAt,value
2022-12-23T00:01:20.852Z,11.50
2022-12-23T00:03:50.246Z,11.50
2022-12-23T00:06:19.356Z,11.50
2022-12-23T00:08:47.613Z,11.50
2022-12-23T00:11:17.768Z,11.50
2022-12-23T00:14:03.934Z,11.50
2022-12-23T00:16:32.349Z,11.50
2022-12-23T00:19:01.778Z,11.50
2022-12-23T00:21:29.683Z,11.60
2022-12-23T00:23:57.585Z,11.50
2022-12-23T00:26:27.292Z,11.50
2022-12-23T00:28:58.207Z,11.50
2022-12-23T00:31:26.639Z,11.50
2022-12-23T00:33:54.616Z,11.50
2022-12-23T00:36:25.668Z,11.50
2022-12-23T00:39:26.209Z,11.50
2022-12-23T00:42:11.764Z,11.50
2022-12-23T00:44:39.612Z,11.50
2022-12-23T00:47:07.485Z,11.60
2022-12-23T00:49:43.580Z,11.60
2022-12-23T00:52:15.492Z,11.60
2022-12-23T00:54:43.645Z,11.60
2022-12-23T00:57:11.852Z,11.60
2022-12-23T00:59:39.732Z,11.60
2022-12-23T01:02:25.241Z,11.60
2022-12-23T01:05:10.641Z,11.60
2022-12-23T01:07:39.957Z,11.60
2022-12-23T01:10:09.553Z,11.60
2022-12-23T01:12:37.746Z,11.50
2022-12-23T01:15:06.488Z,11.60
2022-12-23T01:17:34.336Z,11.60
2022-12-23T01:20:02.577Z,11.60
2022-12-23T01:22:30.473Z,11.60
2022-12-23T01:24:59.737Z,11.60
2022-12-23T01:27:27.572Z,11.50
2022-12-23T01:29:55.508Z,11.60
2022-12-23T01:32:23.459Z,11.60
2022-12-23T01:34:51.339Z,11.60
2022-12-23T01:37:19.210Z,11.50
2022-12-23T01:39:47.132Z,11.50
2022-12-23T01:42:35.600Z,11.50
2022-12-23T01:45:07.034Z,11.50
2022-12-23T01:47:39.940Z,11.50
2022-12-23T01:50:11.623Z,11.50
2022-12-23T01:52:45.772Z,11.50
2022-12-23T01:55:18.018Z,11.50
2022-12-23T01:57:49.192Z,11.50
2022-12-23T02:00:35.911Z,11.50
2022-12-23T02:03:21.659Z,11.50
2022-12-23T02:05:50.158Z,11.50
2022-12-23T02:08:48.086Z,11.50
2022-12-23T02:11:33.230Z,11.40
2022-12-23T02:14:32.073Z,11.40
2022-12-23T02:17:07.313Z,11.40
2022-12-23T02:20:00.509Z,11.40
2022-12-23T02:22:47.895Z,11.40
2022-12-23T02:25:41.018Z,11.50
2022-12-23T02:28:31.011Z,11.40
2022-12-23T02:31:10.435Z,11.40
2022-12-23T02:33:48.055Z,11.40
2022-12-23T02:36:33.506Z,11.40
2022-12-23T02:39:08.526Z,11.40
2022-12-23T02:41:43.416Z,11.40
2022-12-23T02:44:21.498Z,11.40
2022-12-23T02:46:53.203Z,11.40
2022-12-23T02:49:27.221Z,11.40
2022-12-23T02:51:57.372Z,11.40
2022-12-23T02:54:30.458Z,11.40
2022-12-23T02:57:01.364Z,11.40
2022-12-23T02:59:34.107Z,11.40
2022-12-23T03:02:03.517Z,11.40
2022-12-23T03:04:31.645Z,11.40
2022-12-23T03:07:05.885Z,11.40
2022-12-23T03:09:42.956Z,11.40
2022-12-23T03:12:20.663Z,11.30
2022-12-23T03:14:59.632Z,11.30
2022-12-23T03:17:48.301Z,11.30
2022-12-23T03:20:23.559Z,11.30
2022-12-23T03:23:00.333Z,11.30
2022-12-23T03:25:34.699Z,11.30
2022-12-23T03:28:11.661Z,11.20
2022-12-23T03:30:44.070Z,11.20
2022-12-23T03:33:16.571Z,11.20
2022-12-23T03:35:50.109Z,11.20
2022-12-23T03:38:20.236Z,11.20
2022-12-23T03:40:53.061Z,11.20
2022-12-23T03:43:24.107Z,11.20
2022-12-23T03:45:56.849Z,11.20
2022-12-23T03:48:31.081Z,11.20
2022-12-23T03:51:03.486Z,11.10
2022-12-23T03:53:35.977Z,11.10
2022-12-23T03:56:07.741Z,11.20
2022-12-23T03:58:40.257Z,11.10
2022-12-23T04:01:18.079Z,11.10
2022-12-23T04:03:56.899Z,11.10
2022-12-23T04:06:27.508Z,11.10
2022-12-23T04:08:55.768Z,11.10
2022-12-23T04:11:23.778Z,11.10
2022-12-23T04:13:51.643Z,11.10
2022-12-23T04:16:19.775Z,11.10
2022-12-23T04:18:49.138Z,11.10
2022-12-23T04:21:17.040Z,11.10
2022-12-23T04:23:44.873Z,11.10
2022-12-23T04:26:12.786Z,11.10
2022-12-23T04:28:40.666Z,11.10
2022-12-23T04:31:08.596Z,11.20
2022-12-23T04:33:36.503Z,11.20
2022-12-23T04:36:06.431Z,11.20
2022-12-23T04:38:34.362Z,11.20
2022-12-23T04:41:02.217Z,11.20
2022-12-23T04:43:30.154Z,11.20
2022-12-23T04:45:57.988Z,11.20
2022-12-23T04:48:25.885Z,11.20
2022-12-23T04:50:53.769Z,11.20
2022-12-23T04:53:22.978Z,11.20
2022-12-23T04:55:51.888Z,11.20
2022-12-23T04:58:22.035Z,11.20
2022-12-23T05:00:50.040Z,11.20
2022-12-23T05:03:18.400Z,11.20
2022-12-23T05:05:46.645Z,11.20
2022-12-23T05:08:14.507Z,11.20
2022-12-23T05:10:45.865Z,11.20
2022-12-23T05:13:13.769Z,11.20
2022-12-23T05:15:44.191Z,11.20
2022-12-23T05:18:12.420Z,11.20
2022-12-23T05:20:40.362Z,11.20
2022-12-23T05:23:08.453Z,11.20
2022-12-23T05:25:37.397Z,11.20
2022-12-23T05:28:07.925Z,11.20
2022-12-23T05:30:36.051Z,11.20
2022-12-23T05:33:04.006Z,11.20
2022-12-23T05:35:31.913Z,11.20
2022-12-23T05:37:59.944Z,11.20
2022-12-23T05:40:29.804Z,11.20
2022-12-23T05:42:59.191Z,11.20
2022-12-23T05:45:28.510Z,11.20
2022-12-23T05:47:56.459Z,11.20
2022-12-23T05:50:24.375Z,11.20
2022-12-23T05:52:52.283Z,11.20
2022-12-23T05:55:20.163Z,11.20
2022-12-23T05:57:48.135Z,11.10
2022-12-23T06:00:17.035Z,11.20
2022-12-23T06:02:53.289Z,11.10
2022-12-23T06:05:22.596Z,11.10
2022-12-23T06:07:50.648Z,11.10
2022-12-23T06:10:18.747Z,11.10
2022-12-23T06:12:46.663Z,11.10
2022-12-23T06:15:15.578Z,11.10
2022-12-23T06:17:43.608Z,11.10
2022-12-23T06:20:20.031Z,11.10
2022-12-23T06:22:48.910Z,11.10
2022-12-23T06:25:17.028Z,11.10
2022-12-23T06:27:44.914Z,11.10
2022-12-23T06:30:12.981Z,11.10
2022-12-23T06:32:41.505Z,11.10
2022-12-23T06:35:10.526Z,11.10
2022-12-23T06:37:39.909Z,11.10
2022-12-23T06:40:08.852Z,11.10
2022-12-23T06:42:36.721Z,11.10
2022-12-23T06:45:05.129Z,11.10
2022-12-23T06:47:33.007Z,11.10
2022-12-23T06:50:00.929Z,11.10
2022-12-23T06:52:28.990Z,11.10
2022-12-23T06:54:58.183Z,11.10
2022-12-23T06:57:26.067Z,11.10
2022-12-23T06:59:53.944Z,11.00
2022-12-23T07:02:22.132Z,11.00
2022-12-23T07:04:50.127Z,11.10
2022-12-23T07:07:17.990Z,11.10
2022-12-23T07:09:45.873Z,11.10
2022-12-23T07:12:15.177Z,11.10
2022-12-23T07:14:43.157Z,11.10
2022-12-23T07:17:11.516Z,11.10
2022-12-23T07:19:41.593Z,11.10
2022-12-23T07:22:10.625Z,11.10
2022-12-23T07:24:38.689Z,11.10
2022-12-23T07:27:06.553Z,11.10
2022-12-23T07:29:35.814Z,11.10
2022-12-23T07:32:04.556Z,11.10
2022-12-23T07:34:32.785Z,11.10
2022-12-23T07:37:00.743Z,11.10
2022-12-23T07:39:28.668Z,11.10
2022-12-23T07:42:16.513Z,11.00
2022-12-23T07:44:45.812Z,11.00
2022-12-23T07:47:13.807Z,11.00
2022-12-23T07:49:41.716Z,11.00
2022-12-23T07:52:09.588Z,11.00
2022-12-23T07:54:37.485Z,11.00
2022-12-23T07:57:05.405Z,11.00
2022-12-23T07:59:33.291Z,11.00
2022-12-23T08:02:02.824Z,11.00
2022-12-23T08:04:30.905Z,11.00
2022-12-23T08:06:58.791Z,11.00
2022-12-23T08:09:26.717Z,11.00
2022-12-23T08:11:54.639Z,11.00
2022-12-23T08:14:23.206Z,11.00
2022-12-23T08:16:51.180Z,11.00
2022-12-23T08:19:20.487Z,10.90
2022-12-23T08:21:48.366Z,11.00
2022-12-23T08:24:16.514Z,10.90
2022-12-23T08:26:44.420Z,10.90
2022-12-23T08:29:12.289Z,10.90
2022-12-23T08:31:40.186Z,10.90
2022-12-23T08:34:08.107Z,10.90
2022-12-23T08:36:37.739Z,11.00
2022-12-23T08:39:09.524Z,11.00
2022-12-23T08:41:41.066Z,11.00
2022-12-23T08:44:09.286Z,11.00
2022-12-23T08:46:38.021Z,11.00
2022-12-23T08:49:06.307Z,11.00
2022-12-23T08:51:34.656Z,11.00
2022-12-23T08:54:04.519Z,11.10
2022-12-23T08:56:34.632Z,11.10
2022-12-23T08:59:03.102Z,11.10
2022-12-23T09:01:33.468Z,11.10
2022-12-23T09:04:03.994Z,11.10
2022-12-23T09:06:36.073Z,11.10
2022-12-23T09:09:06.148Z,11.10
2022-12-23T09:11:34.430Z,11.20
2022-12-23T09:14:02.950Z,11.10
2022-12-23T09:16:31.892Z,11.20
2022-12-23T09:19:00.013Z,11.20
2022-12-23T09:21:27.900Z,11.20
2022-12-23T09:23:55.825Z,11.20
2022-12-23T09:26:27.700Z,11.20
2022-12-23T09:28:56.300Z,11.20
2022-12-23T09:31:27.855Z,11.20
2022-12-23T09:34:00.534Z,11.20
2022-12-23T09:36:29.831Z,11.30
2022-12-23T09:38:58.783Z,11.30
2022-12-23T09:41:42.720Z,11.30
2022-12-23T09:44:32.023Z,11.30
2022-12-23T09:47:04.014Z,11.30
2022-12-23T09:49:32.714Z,11.30
2022-12-23T09:52:04.598Z,11.30
2022-12-23T09:54:39.011Z,11.30
2022-12-23T09:57:17.940Z,11.30
2022-12-23T09:59:59.250Z,11.40
2022-12-23T10:02:40.592Z,11.30
2022-12-23T10:05:20.895Z,11.40
2022-12-23T10:07:52.296Z,11.40
2022-12-23T10:10:27.760Z,11.30
2022-12-23T10:12:59.252Z,11.40
2022-12-23T10:15:31.734Z,11.40
2022-12-23T10:18:05.463Z,11.40
2022-12-23T10:20:40.486Z,11.40
2022-12-23T10:23:17.347Z,11.40
2022-12-23T10:25:51.784Z,11.40
2022-12-23T10:28:21.368Z,11.40
2022-12-23T10:34:01.374Z,11.50
2022-12-23T10:36:38.774Z,11.50
2022-12-23T10:39:14.743Z,11.50
2022-12-23T10:41:51.741Z,11.50
2022-12-23T10:44:34.649Z,11.50
2022-12-23T10:47:11.592Z,11.50
2022-12-23T10:49:50.885Z,11.60
2022-12-23T10:52:21.478Z,11.60
2022-12-23T10:54:49.901Z,11.50
2022-12-23T10:57:20.767Z,11.50
2022-12-23T10:59:50.339Z,11.50
2022-12-23T11:02:36.035Z,11.50
2022-12-23T11:05:04.121Z,11.60
2022-12-23T11:07:47.349Z,11.60
2022-12-23T11:10:19.392Z,11.60
2022-12-23T11:12:49.061Z,11.60
2022-12-23T11:15:30.037Z,11.60
2022-12-23T11:18:07.480Z,11.60
2022-12-23T11:20:37.183Z,11.60
2022-12-23T11:23:07.855Z,11.60
2022-12-23T11:25:38.784Z,11.60
2022-12-23T11:28:13.068Z,11.60
2022-12-23T11:30:56.586Z,11.60
2022-12-23T11:33:28.003Z,11.60
2022-12-23T11:36:08.970Z,11.70
2022-12-23T11:38:48.172Z,11.60
2022-12-23T11:41:21.173Z,11.60
2022-12-23T11:43:56.600Z,11.60
2022-12-23T11:46:30.137Z,11.60
2022-12-23T11:49:15.615Z,11.60
2022-12-23T11:51:44.041Z,11.60
2022-12-23T11:54:20.542Z,11.60
2022-12-23T11:56:52.065Z,11.70
2022-12-23T11:59:31.967Z,11.60
2022-12-23T12:02:05.496Z,11.60
2022-12-23T12:04:36.485Z,11.60
2022-12-23T12:07:05.957Z,11.60
2022-12-23T12:09:35.172Z,11.60
2022-12-23T12:12:06.615Z,11.60
2022-12-23T12:14:43.235Z,11.60
2022-12-23T12:17:18.837Z,11.60
2022-12-23T12:20:02.901Z,11.60
2022-12-23T12:22:37.221Z,11.60
2022-12-23T12:25:17.971Z,11.60
2022-12-23T12:27:53.205Z,11.60
2022-12-23T12:30:22.113Z,11.60
2022-12-23T12:32:57.779Z,11.60
2022-12-23T12:35:33.426Z,11.60
2022-12-23T12:38:07.178Z,11.60
2022-12-23T12:40:38.680Z,11.60
2022-12-23T12:43:17.529Z,11.60
2022-12-23T12:45:52.511Z,11.60
2022-12-23T12:48:37.167Z,11.60
2022-12-23T12:51:12.337Z,11.60
2022-12-23T12:53:49.871Z,11.60
2022-12-23T12:56:25.858Z,11.60
2022-12-23T12:58:53.767Z,11.60
2022-12-23T13:01:34.780Z,11.60
2022-12-23T13:04:30.777Z,11.60
2022-12-23T13:07:05.716Z,11.60
2022-12-23T13:09:45.556Z,11.60
2022-12-23T13:12:23.324Z,11.60
2022-12-23T13:15:00.129Z,11.60
2022-12-23T13:17:33.485Z,11.60
2022-12-23T13:20:13.053Z,11.60
2022-12-23T13:22:41.662Z,11.60
2022-12-23T13:25:16.910Z,11.60
2022-12-23T13:27:51.727Z,11.60
2022-12-23T13:30:23.635Z,11.60
2022-12-23T13:33:06.794Z,11.60
2022-12-23T13:35:51.102Z,11.70
2022-12-23T13:38:39.375Z,11.70
2022-12-23T13:41:15.411Z,11.70
2022-12-23T13:43:48.342Z,11.70
2022-12-23T13:46:22.813Z,11.70
2022-12-23T13:48:57.681Z,11.70
2022-12-23T13:51:35.953Z,11.70
2022-12-23T13:54:13.247Z,11.70
2022-12-23T13:56:46.229Z,11.70
2022-12-23T13:59:17.069Z,11.80
2022-12-23T14:01:47.868Z,11.80
2022-12-23T14:04:57.638Z,11.80
2022-12-23T14:07:29.166Z,11.80
2022-12-23T14:09:58.702Z,11.80
2022-12-23T14:12:30.551Z,11.80
2022-12-23T14:15:28.977Z,11.80
2022-12-23T14:18:10.683Z,11.80
2022-12-23T14:20:49.362Z,11.80
2022-12-23T14:23:36.765Z,11.80
2022-12-23T14:26:30.158Z,11.90
2022-12-23T14:29:16.765Z,11.90
2022-12-23T14:31:47.879Z,11.90
2022-12-23T14:34:30.988Z,11.90
2022-12-23T14:37:36.994Z,11.90
2022-12-23T14:40:42.607Z,12.00
2022-12-23T14:43:34.212Z,12.00
2022-12-23T14:46:04.871Z,12.00
2022-12-23T14:49:37.483Z,12.00
2022-12-23T14:52:20.206Z,12.00
2022-12-23T14:55:20.650Z,12.00
2022-12-23T14:57:37.526Z,12.00
2022-12-23T15:00:07.836Z,12.00
2022-12-23T15:02:40.801Z,12.00
2022-12-23T15:05:10.627Z,12.00
2022-12-23T15:07:41.521Z,12.00
2022-12-23T15:10:18.621Z,12.00
2022-12-23T15:12:50.116Z,12.10
2022-12-23T15:15:20.341Z,12.10
2022-12-23T15:17:49.445Z,12.10
2022-12-23T15:20:20.853Z,12.10
2022-12-23T15:22:49.525Z,12.10
2022-12-23T15:25:23.658Z,12.10
2022-12-23T15:27:59.090Z,12.10
2022-12-23T15:30:33.862Z,12.10
2022-12-23T15:33:04.137Z,12.10
2022-12-23T15:35:34.611Z,12.10
2022-12-23T15:38:03.766Z,12.20
2022-12-23T15:40:36.097Z,12.30
2022-12-23T15:43:18.676Z,12.40
2022-12-23T15:45:46.670Z,12.50
2022-12-23T15:48:26.041Z,12.60
2022-12-23T15:50:56.459Z,12.70
2022-12-23T15:53:32.162Z,12.70
2022-12-23T15:56:05.132Z,12.80
2022-12-23T15:58:34.854Z,12.80
2022-12-23T16:01:03.051Z,12.80
2022-12-23T16:03:35.073Z,12.80
2022-12-23T16:06:09.237Z,12.90
2022-12-23T16:08:38.504Z,12.90
2022-12-23T16:11:15.289Z,13.00
2022-12-23T16:13:58.324Z,13.00
2022-12-23T16:16:37.741Z,13.10
2022-12-23T16:19:05.741Z,13.10
2022-12-23T16:21:36.384Z,13.10
2022-12-23T16:24:09.764Z,13.10
2022-12-23T16:26:43.297Z,13.20
2022-12-23T16:29:12.450Z,13.20
2022-12-23T16:31:45.690Z,13.20
2022-12-23T16:34:18.337Z,13.20
2022-12-23T16:36:46.318Z,13.20
2022-12-23T16:39:21.527Z,13.30
2022-12-23T16:41:51.373Z,13.30
2022-12-23T16:44:19.341Z,13.30
2022-12-23T16:46:50.543Z,13.30
2022-12-23T16:49:20.941Z,13.30
2022-12-23T16:51:49.315Z,13.40
2022-12-23T16:54:19.599Z,13.40
2022-12-23T16:56:47.743Z,13.40
2022-12-23T16:59:17.099Z,13.40
2022-12-23T17:01:47.583Z,13.40
2022-12-23T17:04:16.117Z,13.40
2022-12-23T17:06:46.375Z,13.40
2022-12-23T17:09:14.551Z,13.40
2022-12-23T17:11:45.563Z,13.40
2022-12-23T17:14:18.892Z,13.50
2022-12-23T17:16:47.417Z,13.50
2022-12-23T17:19:16.008Z,13.50
2022-12-23T17:21:47.152Z,13.50
2022-12-23T17:24:21.727Z,13.50
2022-12-23T17:26:49.714Z,13.50
2022-12-23T17:29:18.940Z,13.50
2022-12-23T17:31:48.377Z,13.50
2022-12-23T17:34:17.907Z,13.50
2022-12-23T17:36:49.843Z,13.50
2022-12-23T17:39:18.913Z,13.50
2022-12-23T17:41:47.361Z,13.50
2022-12-23T17:44:18.603Z,13.50
2022-12-23T17:46:47.534Z,13.50
2022-12-23T17:49:15.529Z,13.50
2022-12-23T17:51:43.793Z,13.50
2022-12-23T17:54:25.937Z,13.50
2022-12-23T17:56:54.029Z,13.50
2022-12-23T17:59:23.370Z,13.50
2022-12-23T18:01:51.597Z,13.50
2022-12-23T18:04:19.574Z,13.60
2022-12-23T18:06:47.452Z,13.50
2022-12-23T18:09:15.371Z,13.50
2022-12-23T18:11:45.357Z,13.50
2022-12-23T18:14:17.862Z,13.50
2022-12-23T18:16:47.233Z,13.50
2022-12-23T18:19:18.955Z,13.60
2022-12-23T18:21:47.219Z,13.60
2022-12-23T18:24:15.178Z,13.50
2022-12-23T18:26:43.175Z,13.50
2022-12-23T18:29:11.214Z,13.50
2022-12-23T18:31:50.477Z,13.50
2022-12-23T18:34:21.570Z,13.50
2022-12-23T18:36:51.431Z,13.50
2022-12-23T18:39:20.148Z,13.50
2022-12-23T18:41:48.254Z,13.40
2022-12-23T18:44:19.191Z,13.40
2022-12-23T18:46:47.455Z,13.40
2022-12-23T18:49:15.535Z,13.40
2022-12-23T18:51:44.887Z,13.30
2022-12-23T18:54:15.451Z,13.30
2022-12-23T18:56:44.130Z,13.20
2022-12-23T18:59:17.288Z,13.20
2022-12-23T19:01:45.578Z,13.10
2022-12-23T19:04:13.878Z,13.20
2022-12-23T19:06:41.974Z,13.10
2022-12-23T19:09:16.800Z,13.10
2022-12-23T19:11:46.535Z,13.10
2022-12-23T19:14:14.472Z,13.10
2022-12-23T19:16:46.171Z,13.10
2022-12-23T19:19:19.047Z,13.10
2022-12-23T19:21:47.132Z,13.10
2022-12-23T19:24:16.324Z,13.10
2022-12-23T19:26:44.330Z,13.20
2022-12-23T19:29:12.288Z,13.20
2022-12-23T19:31:40.923Z,13.30
2022-12-23T19:34:14.663Z,13.30
2022-12-23T19:36:43.806Z,13.30
2022-12-23T19:39:15.953Z,13.30
2022-12-23T19:41:45.744Z,13.30
2022-12-23T19:44:14.075Z,13.30
2022-12-23T19:46:42.159Z,13.30
2022-12-23T19:49:15.701Z,13.30
2022-12-23T19:51:47.317Z,13.30
2022-12-23T19:54:15.401Z,13.30
2022-12-23T19:56:44.798Z,13.30
2022-12-23T19:59:12.789Z,13.30
2022-12-23T20:01:40.721Z,13.30
2022-12-23T20:04:10.931Z,13.30
2022-12-23T20:06:39.403Z,13.30
2022-12-23T20:09:09.664Z,13.30
2022-12-23T20:11:39.440Z,13.30
2022-12-23T20:14:09.878Z,13.30
2022-12-23T20:16:38.804Z,13.30
2022-12-23T20:19:07.264Z,13.30
2022-12-23T20:21:37.280Z,13.30
2022-12-23T20:24:05.782Z,13.30
2022-12-23T20:26:33.679Z,13.30
2022-12-23T20:29:01.693Z,13.30
2022-12-23T20:31:32.594Z,13.30
2022-12-23T20:34:02.055Z,13.30
2022-12-23T20:36:32.201Z,13.30
2022-12-23T20:39:00.431Z,13.30
2022-12-23T20:41:29.860Z,13.30
2022-12-23T20:46:47.628Z,13.20
2022-12-23T20:49:15.549Z,13.20
2022-12-23T20:51:43.512Z,13.20
2022-12-23T20:54:11.460Z,13.20
2022-12-23T20:56:39.341Z,13.20
2022-12-23T20:59:07.222Z,13.20
2022-12-23T21:01:37.912Z,13.10
2022-12-23T21:04:09.451Z,13.20
2022-12-23T21:06:37.709Z,13.10
2022-12-23T21:09:06.804Z,13.10
2022-12-23T21:11:37.209Z,13.00
2022-12-23T21:14:07.322Z,13.00
2022-12-23T21:16:37.103Z,13.00
2022-12-23T21:19:07.103Z,12.90
2022-12-23T21:21:35.154Z,12.90
2022-12-23T21:24:04.905Z,12.90
2022-12-23T21:26:34.396Z,12.80
2022-12-23T21:29:03.823Z,12.80
2022-12-23T21:31:33.282Z,12.80
2022-12-23T21:34:01.285Z,12.80
2022-12-23T21:36:32.423Z,12.80
2022-12-23T21:39:00.630Z,12.80
2022-12-23T21:41:30.849Z,12.80
2022-12-23T21:44:00.324Z,12.70
2022-12-23T21:46:29.896Z,12.70
2022-12-23T21:48:58.907Z,12.70
2022-12-23T21:51:33.318Z,12.70
2022-12-23T21:54:08.086Z,12.70
2022-12-23T21:56:36.381Z,12.70
2022-12-23T21:59:06.358Z,12.70
2022-12-23T22:01:35.165Z,12.60
2022-12-23T22:04:03.651Z,12.60
2022-12-23T22:06:33.513Z,12.60
2022-12-23T22:09:01.633Z,12.60
2022-12-23T22:11:32.376Z,12.60
2022-12-23T22:14:01.307Z,12.60
2022-12-23T22:16:31.012Z,12.60
2022-12-23T22:19:00.122Z,12.60
2022-12-23T22:21:30.018Z,12.60
2022-12-23T22:23:58.923Z,12.60
2022-12-23T22:26:29.143Z,12.50
2022-12-23T22:29:00.295Z,12.50
2022-12-23T22:31:32.807Z,12.50
2022-12-23T22:34:00.895Z,12.60
2022-12-23T22:36:29.215Z,12.50
2022-12-23T22:38:59.796Z,12.50
2022-12-23T22:41:28.921Z,12.50
2022-12-23T22:43:59.111Z,12.50
2022-12-23T22:46:27.314Z,12.60
2022-12-23T22:48:56.347Z,12.60
2022-12-23T22:51:26.599Z,12.60
2022-12-23T22:53:55.265Z,12.60
2022-12-23T22:56:24.775Z,12.60
2022-12-23T22:58:53.870Z,12.60
2022-12-23T23:01:25.914Z,12.60
2022-12-23T23:03:57.285Z,12.60
2022-12-23T23:06:26.672Z,12.70
2022-12-23T23:08:55.276Z,12.70
2022-12-23T23:11:23.963Z,12.70
2022-12-23T23:13:52.391Z,12.70
2022-12-23T23:16:20.359Z,12.70
2022-12-23T23:18:50.148Z,12.70
2022-12-23T23:21:18.263Z,12.80
2022-12-23T23:23:46.808Z,12.70
2022-12-23T23:26:15.468Z,12.70
2022-12-23T23:28:43.786Z,12.80
2022-12-23T23:34:01.604Z,12.70
2022-12-23T23:36:29.656Z,12.70
2022-12-23T23:38:57.645Z,12.70
2022-12-23T23:41:25.590Z,12.70
2022-12-23T23:43:53.603Z,12.70
2022-12-23T23:46:21.505Z,12.70
2022-12-23T23:48:49.520Z,12.70
2022-12-23T23:51:19.031Z,12.70
2022-12-23T23:53:46.877Z,12.70
2022-12-23T23:56:16.368Z,12.60
2022-12-23T23:58:46.150Z,12.60
